Terminal Aerodrome Forecast
Issued by NWS

Home | Current Version | Previous Version | Graphics & Text | Print | Product List | Glossary On
Versions: 1 2 3 4 5 6 7 8 9 10 11 12 13 14 15 16 17 18 19
962
FTUS43 KGRB 191532 AAB
TAFAUW
TAF AMD
KAUW 191532Z 1916/2012 34013G18KT P6SM OVC035
     FM191900 33010G15KT P6SM BKN040
     FM200100 35005KT P6SM SKC=

USA.gov is the U.S. government's official web portal to all federal, state and local government web resources and services.